Time;durP1;ratioP1;P1;durP2;ratioP2;P2;SDS_P1;SDS_P2;PMS_P1;PMS_P2;Temp;Humidity;BMP_temperature;BMP_pressure;BME280_temperature;BME280_humidity;BME280_pressure;Samples;Min_cycle;Max_cycle;Signal;HPM_P1;HPM_P2
2023/07/15 00:01:06;;;;;;;;;;;;;;;;;;5026308;28;3493;-61
2023/07/15 00:03:32;;;;;;;;;;;;;;;;;;5019845;28;7123;-61
2023/07/15 00:05:57;;;;;;;;;;;;;;;;;;5026714;28;4790;-61
2023/07/15 00:08:22;;;;;;;;;;;;;;;;;;5026201;28;5195;-60
2023/07/15 00:10:48;;;;;;;;;;;;;;;;;;5024598;28;5063;-61
2023/07/15 00:13:13;;;;;;;;;;;;;;;;;;5025716;28;4497;-61
2023/07/15 00:15:40;;;;;;;;;;;;;;;;;;5025987;28;1219;-61
2023/07/15 00:18:05;;;;;;;;;;;;;;;;;;5025683;28;5119;-61
2023/07/15 00:20:31;;;;;;;;;;;;;;;;;;5026609;28;4472;-61
2023/07/15 00:22:56;;;;;;;;;;;;;;;;;;5019743;28;5139;-61
2023/07/15 00:25:21;;;;;;;;;;;;;;;;;;5020842;28;5081;-61
2023/07/15 00:27:47;;;;;;;;;;;;;;;;;;5026056;28;1387;-61
2023/07/15 00:30:16;;;;;;;;;;;;;;;;;;5027288;28;5060;-61
2023/07/15 00:32:47;;;;;;;;;;;;;;;;;;5024355;28;5000;-61
2023/07/15 00:35:18;;;;;;;;;;;;;;;;;;5031231;28;4968;-61
2023/07/15 00:37:44;;;;;;;;;;;;;;;;;;5027911;28;5172;-61
2023/07/15 00:40:10;;;;;;;;;;;;;;;;;;5028689;28;5100;-61
2023/07/15 00:42:40;;;;;;;;;;;;;;;;;;5030663;28;3177;-62
2023/07/15 00:45:06;;;;;;;;;;;;;;;;;;5030971;28;5024;-61
2023/07/15 00:47:32;;;;;;;;;;;;;;;;;;5023590;28;4516;-61
2023/07/15 00:49:58;;;;;;;;;;;;;;;;;;5029321;28;5076;-61
2023/07/15 00:52:23;;;;;;;;;;;;;;;;;;5028622;28;5172;-61
2023/07/15 00:54:50;;;;;;;;;;;;;;;;;;5029945;28;3253;-61
2023/07/15 00:57:15;;;;;;;;;;;;;;;;;;5029992;28;4483;-61
2023/07/15 00:59:41;;;;;;;;;;;;;;;;;;5031024;28;5068;-61
2023/07/15 01:02:09;;;;;;;;;;;;;;;;;;5029013;28;5075;-61
2023/07/15 01:04:35;;;;;;;;;;;;;;;;;;5021862;28;5230;-61
2023/07/15 01:07:00;;;;;;;;;;;;;;;;;;5031275;28;1250;-61
2023/07/15 01:09:26;;;;;;;;;;;;;;;;;;5030742;28;5053;-60
2023/07/15 01:11:51;;;;;;;;;;;;;;;;;;5029896;28;5117;-60
2023/07/15 01:14:16;;;;;;;;;;;;;;;;;;5029443;28;4495;-60
2023/07/15 01:16:42;;;;;;;;;;;;;;;;;;5030581;28;4485;-61
2023/07/15 01:19:07;;;;;;;;;;;;;;;;;;5029918;28;5127;-60
2023/07/15 01:21:35;;;;;;;;;;;;;;;;;;5024290;28;4916;-60
2023/07/15 01:24:01;;;;;;;;;;;;;;;;;;5029694;28;5043;-62
2023/07/15 01:26:27;;;;;;;;;;;;;;;;;;5028948;28;5087;-60
2023/07/15 01:28:52;;;;;;;;;;;;;;;;;;5012421;28;5066;-61
2023/07/15 01:31:19;;;;;;;;;;;;;;;;;;5029100;28;4696;-61
2023/07/15 01:33:44;;;;;;;;;;;;;;;;;;5022768;28;3292;-60
2023/07/15 01:36:09;;;;;;;;;;;;;;;;;;5026871;28;5004;-60
2023/07/15 01:38:37;;;;;;;;;;;;;;;;;;5025912;28;4966;-60
2023/07/15 01:41:02;;;;;;;;;;;;;;;;;;5028692;28;4531;-60
2023/07/15 01:43:27;;;;;;;;;;;;;;;;;;5029446;28;4472;-60
2023/07/15 01:45:53;;;;;;;;;;;;;;;;;;5029694;28;1412;-60
2023/07/15 01:48:18;;;;;;;;;;;;;;;;;;5029334;28;4904;-61
2023/07/15 01:50:43;;;;;;;;;;;;;;;;;;5027493;28;5399;-60
2023/07/15 01:53:09;;;;;;;;;;;;;;;;;;5027458;28;4530;-61
2023/07/15 01:55:34;;;;;;;;;;;;;;;;;;5025340;28;4993;-60
2023/07/15 01:58:01;;;;;;;;;;;;;;;;;;5021828;28;3284;-60
2023/07/15 02:00:27;;;;;;;;;;;;;;;;;;5029887;28;4984;-61
2023/07/15 02:02:53;;;;;;;;;;;;;;;;;;5027551;28;5143;-60
2023/07/15 02:05:18;;;;;;;;;;;;;;;;;;5027207;28;4553;-61
2023/07/15 02:07:44;;;;;;;;;;;;;;;;;;5027952;28;5286;-60
2023/07/15 02:10:09;;;;;;;;;;;;;;;;;;5029559;28;4487;-61
2023/07/15 02:12:35;;;;;;;;;;;;;;;;;;5030091;28;1124;-60
2023/07/15 02:15:00;;;;;;;;;;;;;;;;;;5026655;28;4453;-60
2023/07/15 02:17:26;;;;;;;;;;;;;;;;;;5030036;28;5007;-60
2023/07/15 02:19:51;;;;;;;;;;;;;;;;;;5022156;28;5046;-60
2023/07/15 02:22:17;;;;;;;;;;;;;;;;;;5024402;28;5093;-61
2023/07/15 02:24:42;;;;;;;;;;;;;;;;;;5025015;28;3322;-61
2023/07/15 02:27:07;;;;;;;;;;;;;;;;;;5029402;28;5046;-61
2023/07/15 02:29:33;;;;;;;;;;;;;;;;;;5029272;28;5066;-60
2023/07/15 02:31:58;;;;;;;;;;;;;;;;;;5028589;28;5160;-60
2023/07/15 02:34:24;;;;;;;;;;;;;;;;;;5027955;28;5094;-61
2023/07/15 02:36:49;;;;;;;;;;;;;;;;;;5016313;28;3369;-60
2023/07/15 02:39:14;;;;;;;;;;;;;;;;;;5024616;28;4485;-60
2023/07/15 02:41:39;;;;;;;;;;;;;;;;;;5025951;28;5092;-60
2023/07/15 02:44:05;;;;;;;;;;;;;;;;;;5029412;28;5413;-60
2023/07/15 02:46:30;;;;;;;;;;;;;;;;;;5027418;28;5105;-60
2023/07/15 02:48:55;;;;;;;;;;;;;;;;;;5029812;28;1116;-60
2023/07/15 02:51:20;;;;;;;;;;;;;;;;;;5026309;28;4858;-60
2023/07/15 02:53:47;;;;;;;;;;;;;;;;;;5025395;28;4972;-60
2023/07/15 02:56:12;;;;;;;;;;;;;;;;;;5025782;28;5087;-61
2023/07/15 02:58:37;;;;;;;;;;;;;;;;;;5024549;28;5065;-61
2023/07/15 03:01:03;;;;;;;;;;;;;;;;;;5027044;28;1981;-61
2023/07/15 03:03:28;;;;;;;;;;;;;;;;;;5028781;28;4961;-60
2023/07/15 03:05:54;;;;;;;;;;;;;;;;;;5018714;28;4519;-61
2023/07/15 03:08:20;;;;;;;;;;;;;;;;;;5024849;28;4529;-60
2023/07/15 03:10:45;;;;;;;;;;;;;;;;;;5027928;28;5086;-60
2023/07/15 03:13:11;;;;;;;;;;;;;;;;;;5025124;28;4941;-61
2023/07/15 03:15:36;;;;;;;;;;;;;;;;;;5025523;28;3208;-60
2023/07/15 03:18:02;;;;;;;;;;;;;;;;;;5019228;28;4984;-60
2023/07/15 03:20:27;;;;;;;;;;;;;;;;;;5027547;28;4889;-60
2023/07/15 03:22:54;;;;;;;;;;;;;;;;;;5024908;28;6017;-60
2023/07/15 03:25:19;;;;;;;;;;;;;;;;;;5026627;28;5049;-61
2023/07/15 03:27:45;;;;;;;;;;;;;;;;;;5027921;28;3256;-61
2023/07/15 03:30:10;;;;;;;;;;;;;;;;;;5027088;28;5071;-61
2023/07/15 03:32:36;;;;;;;;;;;;;;;;;;5028317;28;5045;-61
2023/07/15 03:35:03;;;;;;;;;;;;;;;;;;5028519;28;4445;-60
2023/07/15 03:37:28;;;;;;;;;;;;;;;;;;5027430;28;6028;-62
2023/07/15 03:39:53;;;;;;;;;;;;;;;;;;5023508;28;1144;-61
2023/07/15 03:42:19;;;;;;;;;;;;;;;;;;5027498;28;4497;-61
2023/07/15 03:44:44;;;;;;;;;;;;;;;;;;5023940;28;4922;-61
2023/07/15 03:47:09;;;;;;;;;;;;;;;;;;5029037;28;4465;-61
2023/07/15 03:49:34;;;;;;;;;;;;;;;;;;5028264;28;4881;-61
2023/07/15 03:52:00;;;;;;;;;;;;;;;;;;5023390;28;3327;-61
2023/07/15 03:54:25;;;;;;;;;;;;;;;;;;5020089;28;4768;-61
2023/07/15 03:56:50;;;;;;;;;;;;;;;;;;5027139;28;5353;-61
2023/07/15 03:59:15;;;;;;;;;;;;;;;;;;5028778;28;4629;-61
2023/07/15 04:01:40;;;;;;;;;;;;;;;;;;5027090;28;4718;-61
2023/07/15 04:04:08;;;;;;;;;;;;;;;;;;5027195;28;5247;-61
2023/07/15 04:06:36;;;;;;;;;;;;;;;;;;5024026;28;3284;-61
2023/07/15 04:09:03;;;;;;;;;;;;;;;;;;5023322;28;4837;-60
2023/07/15 04:11:28;;;;;;;;;;;;;;;;;;5025055;28;5034;-61
2023/07/15 04:13:53;;;;;;;;;;;;;;;;;;5024028;28;5127;-60
2023/07/15 04:16:18;;;;;;;;;;;;;;;;;;5025230;28;4929;-60
2023/07/15 04:18:44;;;;;;;;;;;;;;;;;;5024136;28;3187;-60
2023/07/15 04:21:09;;;;;;;;;;;;;;;;;;5019001;28;4986;-61
2023/07/15 04:23:34;;;;;;;;;;;;;;;;;;5023707;28;5170;-60
2023/07/15 04:26:00;;;;;;;;;;;;;;;;;;5022739;28;5170;-61
2023/07/15 04:28:25;;;;;;;;;;;;;;;;;;5027560;28;4638;-61
2023/07/15 04:30:50;;;;;;;;;;;;;;;;;;5024732;28;3764;-60
2023/07/15 04:33:16;;;;;;;;;;;;;;;;;;5027949;28;4814;-60
2023/07/15 04:35:41;;;;;;;;;;;;;;;;;;5026222;28;4645;-61
2023/07/15 04:38:06;;;;;;;;;;;;;;;;;;5026625;28;4995;-60
2023/07/15 04:40:31;;;;;;;;;;;;;;;;;;5024869;28;4528;-60
2023/07/15 04:42:57;;;;;;;;;;;;;;;;;;5026830;28;3654;-61
2023/07/15 04:45:22;;;;;;;;;;;;;;;;;;5027163;28;4966;-60
2023/07/15 04:47:47;;;;;;;;;;;;;;;;;;5027568;28;4489;-60
2023/07/15 04:50:13;;;;;;;;;;;;;;;;;;5027130;28;4711;-61
2023/07/15 04:52:38;;;;;;;;;;;;;;;;;;5027259;28;4709;-61
2023/07/15 04:55:03;;;;;;;;;;;;;;;;;;5026829;28;3545;-61
2023/07/15 04:57:29;;;;;;;;;;;;;;;;;;5027671;28;4415;-61
2023/07/15 04:59:54;;;;;;;;;;;;;;;;;;5026482;28;5333;-61
2023/07/15 05:02:19;;;;;;;;;;;;;;;;;;5022640;28;5218;-61
2023/07/15 05:04:44;;;;;;;;;;;;;;;;;;5022789;28;4507;-61
2023/07/15 05:07:10;;;;;;;;;;;;;;;;;;5017586;28;5394;-61
2023/07/15 05:09:35;;;;;;;;;;;;;;;;;;5019610;28;3642;-61
2023/07/15 05:12:00;;;;;;;;;;;;;;;;;;5021281;28;5088;-61
2023/07/15 05:14:25;;;;;;;;;;;;;;;;;;5025247;28;5487;-60
2023/07/15 05:16:51;;;;;;;;;;;;;;;;;;5020621;28;4944;-61
2023/07/15 05:19:16;;;;;;;;;;;;;;;;;;5020629;28;5183;-61
2023/07/15 05:21:41;;;;;;;;;;;;;;;;;;5020264;28;5048;-61
2023/07/15 05:24:06;;;;;;;;;;;;;;;;;;5029816;28;5914;-60
2023/07/15 05:26:32;;;;;;;;;;;;;;;;;;5023041;28;5025;-62
2023/07/15 05:28:57;;;;;;;;;;;;;;;;;;5029627;28;5154;-60
2023/07/15 05:31:22;;;;;;;;;;;;;;;;;;5029426;28;4508;-60
2023/07/15 05:33:47;;;;;;;;;;;;;;;;;;5028223;28;3246;-61
2023/07/15 05:36:14;;;;;;;;;;;;;;;;;;5021955;28;4980;-60
2023/07/15 05:38:42;;;;;;;;;;;;;;;;;;5025864;28;5920;-60
2023/07/15 05:41:07;;;;;;;;;;;;;;;;;;5024915;28;5003;-61
2023/07/15 05:43:32;;;;;;;;;;;;;;;;;;5030532;28;4727;-61
2023/07/15 05:45:58;;;;;;;;;;;;;;;;;;5028687;28;3123;-60
2023/07/15 05:48:23;;;;;;;;;;;;;;;;;;5029710;28;4908;-60
2023/07/15 05:50:48;;;;;;;;;;;;;;;;;;5029525;28;5200;-60
2023/07/15 05:53:13;;;;;;;;;;;;;;;;;;5027971;28;4599;-61
2023/07/15 05:55:39;;;;;;;;;;;;;;;;;;5024825;28;5094;-61
2023/07/15 05:58:09;;;;;;;;;;;;;;;;;;5029093;28;4006;-61
2023/07/15 06:00:35;;;;;;;;;;;;;;;;;;5022985;28;4427;-61
2023/07/15 06:03:00;;;;;;;;;;;;;;;;;;5020276;28;5080;-61
2023/07/15 06:05:25;;;;;;;;;;;;;;;;;;5025016;28;5028;-60
2023/07/15 06:07:50;;;;;;;;;;;;;;;;;;5020562;28;4516;-62
2023/07/15 06:10:16;;;;;;;;;;;;;;;;;;5025292;28;5084;-61
2023/07/15 06:12:41;;;;;;;;;;;;;;;;;;5026277;28;3738;-61
2023/07/15 06:15:07;;;;;;;;;;;;;;;;;;5018050;28;5127;-62
2023/07/15 06:17:32;;;;;;;;;;;;;;;;;;5021592;28;5127;-61
2023/07/15 06:19:57;;;;;;;;;;;;;;;;;;5024318;28;5101;-59
2023/07/15 06:22:22;;;;;;;;;;;;;;;;;;5022703;28;5177;-62
2023/07/15 06:24:48;;;;;;;;;;;;;;;;;;5023672;28;3796;-62
2023/07/15 06:27:13;;;;;;;;;;;;;;;;;;5027387;28;5019;-62
2023/07/15 06:29:38;;;;;;;;;;;;;;;;;;5024591;28;5061;-63
2023/07/15 06:32:04;;;;;;;;;;;;;;;;;;5027873;28;5030;-62
2023/07/15 06:34:31;;;;;;;;;;;;;;;;;;5029072;28;5057;-62
2023/07/15 06:36:56;;;;;;;;;;;;;;;;;;5029814;28;1217;-62
2023/07/15 06:39:22;;;;;;;;;;;;;;;;;;5026341;28;4875;-62
2023/07/15 06:41:47;;;;;;;;;;;;;;;;;;5029102;28;4879;-62
2023/07/15 06:44:12;;;;;;;;;;;;;;;;;;5029900;28;5119;-63
2023/07/15 06:46:37;;;;;;;;;;;;;;;;;;5026139;28;5106;-62
2023/07/15 06:49:02;;;;;;;;;;;;;;;;;;5027839;28;3653;-62
2023/07/15 06:51:28;;;;;;;;;;;;;;;;;;5024752;28;4962;-62
2023/07/15 06:53:53;;;;;;;;;;;;;;;;;;5027839;28;4625;-62
2023/07/15 06:56:18;;;;;;;;;;;;;;;;;;5014985;28;7184;-63
2023/07/15 06:58:44;;;;;;;;;;;;;;;;;;5030621;28;5421;-62
2023/07/15 07:01:09;;;;;;;;;;;;;;;;;;5030769;28;4664;-62
2023/07/15 07:03:34;;;;;;;;;;;;;;;;;;5025841;28;5253;-63
2023/07/15 07:06:01;;;;;;;;;;;;;;;;;;5028221;28;4907;-64
2023/07/15 07:08:26;;;;;;;;;;;;;;;;;;5022366;28;5048;-64
2023/07/15 07:10:52;;;;;;;;;;;;;;;;;;5027757;28;5011;-64
2023/07/15 07:13:20;;;;;;;;;;;;;;;;;;5027041;28;5417;-64
2023/07/15 07:15:46;;;;;;;;;;;;;;;;;;5027095;28;4476;-64
2023/07/15 07:18:12;;;;;;;;;;;;;;;;;;5022661;28;3934;-64
2023/07/15 07:20:37;;;;;;;;;;;;;;;;;;5020554;28;4917;-64
2023/07/15 07:23:03;;;;;;;;;;;;;;;;;;5028389;28;5074;-64
2023/07/15 07:25:28;;;;;;;;;;;;;;;;;;5025237;28;5116;-63
2023/07/15 07:27:53;;;;;;;;;;;;;;;;;;5020624;28;4692;-61
2023/07/15 07:30:18;;;;;;;;;;;;;;;;;;5022249;28;5493;-60
2023/07/15 07:32:44;;;;;;;;;;;;;;;;;;5021164;28;5118;-63
2023/07/15 07:35:09;;;;;;;;;;;;;;;;;;5022648;28;4519;-61
2023/07/15 07:37:34;;;;;;;;;;;;;;;;;;5025135;28;5120;-60
2023/07/15 07:40:00;;;;;;;;;;;;;;;;;;5026793;28;5182;-64
2023/07/15 07:42:25;;;;;;;;;;;;;;;;;;5021768;28;3814;-62
2023/07/15 07:44:50;;;;;;;;;;;;;;;;;;5023319;28;4485;-62
2023/07/15 07:47:15;;;;;;;;;;;;;;;;;;5025115;28;5179;-62
2023/07/15 07:49:41;;;;;;;;;;;;;;;;;;5023548;28;5231;-64
2023/07/15 07:52:06;;;;;;;;;;;;;;;;;;5015501;28;5063;-67
2023/07/15 07:54:31;;;;;;;;;;;;;;;;;;5023884;28;3853;-67
2023/07/15 07:56:57;;;;;;;;;;;;;;;;;;5022540;28;4919;-67
2023/07/15 07:59:22;;;;;;;;;;;;;;;;;;5029398;28;4414;-68
2023/07/15 08:01:49;;;;;;;;;;;;;;;;;;5022531;28;4606;-66
2023/07/15 08:04:14;;;;;;;;;;;;;;;;;;5023530;28;5217;-66
2023/07/15 08:06:40;;;;;;;;;;;;;;;;;;5028269;28;4878;-67
2023/07/15 08:09:05;;;;;;;;;;;;;;;;;;5027314;28;2689;-66
2023/07/15 08:11:30;;;;;;;;;;;;;;;;;;5027211;28;5820;-66
2023/07/15 08:13:55;;;;;;;;;;;;;;;;;;5028975;28;5083;-65
2023/07/15 08:16:33;;;;;;;;;;;;;;;;;;5021572;28;5210;-64
2023/07/15 08:18:59;;;;;;;;;;;;;;;;;;5021944;28;5101;-68
2023/07/15 08:21:26;;;;;;;;;;;;;;;;;;5028258;28;1934;-67
2023/07/15 08:23:51;;;;;;;;;;;;;;;;;;5026075;28;5088;-66
2023/07/15 08:26:16;;;;;;;;;;;;;;;;;;5021907;28;5150;-63
2023/07/15 08:28:42;;;;;;;;;;;;;;;;;;5023539;28;4486;-64
2023/07/15 08:31:07;;;;;;;;;;;;;;;;;;5025396;28;4614;-62
2023/07/15 08:33:32;;;;;;;;;;;;;;;;;;5024524;28;3326;-63
2023/07/15 08:35:57;;;;;;;;;;;;;;;;;;5021661;28;4950;-63
2023/07/15 08:38:22;;;;;;;;;;;;;;;;;;5023333;28;5082;-64
2023/07/15 08:40:48;;;;;;;;;;;;;;;;;;5021866;28;4930;-64
2023/07/15 08:43:13;;;;;;;;;;;;;;;;;;5023508;28;5107;-63
2023/07/15 08:45:39;;;;;;;;;;;;;;;;;;5024012;28;4675;-63
2023/07/15 08:48:06;;;;;;;;;;;;;;;;;;5025456;28;1144;-64
2023/07/15 08:50:34;;;;;;;;;;;;;;;;;;5020596;28;4609;-64
2023/07/15 08:53:03;;;;;;;;;;;;;;;;;;5022599;28;5055;-64
2023/07/15 08:55:28;;;;;;;;;;;;;;;;;;5019637;28;4541;-63
2023/07/15 08:57:53;;;;;;;;;;;;;;;;;;5026079;28;5071;-64
2023/07/15 09:00:19;;;;;;;;;;;;;;;;;;5028223;28;2345;-63
2023/07/15 09:02:44;;;;;;;;;;;;;;;;;;5028016;28;5219;-64
2023/07/15 09:05:10;;;;;;;;;;;;;;;;;;5030430;28;5272;-64
2023/07/15 09:07:44;;;;;;;;;;;;;;;;;;5025889;28;4665;-62
2023/07/15 09:10:13;;;;;;;;;;;;;;;;;;5029453;28;4413;-63
2023/07/15 09:12:42;;;;;;;;;;;;;;;;;;5025863;28;5318;-63
2023/07/15 09:15:08;;;;;;;;;;;;;;;;;;5028378;28;3348;-68
2023/07/15 09:17:33;;;;;;;;;;;;;;;;;;5019177;28;4766;-75
2023/07/15 09:20:00;;;;;;;;;;;;;;;;;;5020244;28;5096;-76
2023/07/15 09:22:26;;;;;;;;;;;;;;;;;;5028536;28;4533;-77
2023/07/15 09:24:52;;;;;;;;;;;;;;;;;;5029903;28;5429;-75
2023/07/15 09:27:17;;;;;;;;;;;;;;;;;;5030229;28;1147;-76
2023/07/15 09:29:42;;;;;;;;;;;;;;;;;;5029659;28;5192;-72
2023/07/15 09:32:08;;;;;;;;;;;;;;;;;;5028178;28;4521;-74
2023/07/15 09:34:38;;;;;;;;;;;;;;;;;;5029545;28;5077;-73
2023/07/15 09:37:03;;;;;;;;;;;;;;;;;;5030475;28;4969;-74
2023/07/15 09:39:28;;;;;;;;;;;;;;;;;;5031379;28;1103;-75
2023/07/15 09:42:06;;;;;;;;;;;;;;;;;;5030502;28;5324;-77
2023/07/15 09:44:37;;;;;;;;;;;;;;;;;;5031152;28;4950;-75
2023/07/15 09:47:03;;;;;;;;;;;;;;;;;;5030597;28;5269;-78
2023/07/15 09:49:28;;;;;;;;;;;;;;;;;;5031453;28;5132;-70
2023/07/15 09:51:53;;;;;;;;;;;;;;;;;;5030611;28;5008;-76
2023/07/15 09:54:19;;;;;;;;;;;;;;;;;;5030046;28;1268;-77
2023/07/15 09:56:44;;;;;;;;;;;;;;;;;;5022829;28;4835;-77
2023/07/15 09:59:17;;;;;;;;;;;;;;;;;;5029489;28;4465;-77
2023/07/15 10:01:43;;;;;;;;;;;;;;;;;;5028156;28;5082;-76
2023/07/15 10:04:11;;;;;;;;;;;;;;;;;;5030767;28;5046;-73
2023/07/15 10:06:36;;;;;;;;;;;;;;;;;;5030037;28;4967;-77
2023/07/15 10:09:03;;;;;;;;;;;;;;;;;;5028422;28;1196;-76
2023/07/15 10:11:29;;;;;;;;;;;;;;;;;;5026379;28;5183;-72
2023/07/15 10:13:55;;;;;;;;;;;;;;;;;;5026986;28;4712;-78
2023/07/15 10:16:20;;;;;;;;;;;;;;;;;;5028227;28;5361;-77
2023/07/15 10:18:45;;;;;;;;;;;;;;;;;;5026933;28;5426;-78
2023/07/15 10:21:11;;;;;;;;;;;;;;;;;;5028553;28;1923;-78
2023/07/15 10:23:36;;;;;;;;;;;;;;;;;;5027192;28;5048;-76
2023/07/15 10:26:02;;;;;;;;;;;;;;;;;;5030002;28;4442;-77
2023/07/15 10:28:50;;;;;;;;;;;;;;;;;;5029793;28;4481;-77
2023/07/15 10:31:15;;;;;;;;;;;;;;;;;;5030009;28;4920;-78
2023/07/15 10:33:59;;;;;;;;;;;;;;;;;;5029890;28;4507;-76
2023/07/15 10:36:50;;;;;;;;;;;;;;;;;;5030516;28;1136;-76
2023/07/15 10:39:16;;;;;;;;;;;;;;;;;;5024082;28;4418;-78
2023/07/15 10:41:42;;;;;;;;;;;;;;;;;;5029677;28;4833;-77
2023/07/15 10:44:23;;;;;;;;;;;;;;;;;;5029261;28;4941;-78
2023/07/15 10:46:58;;;;;;;;;;;;;;;;;;5029811;28;4518;-77
2023/07/15 10:49:23;;;;;;;;;;;;;;;;;;5022591;28;4993;-73
2023/07/15 10:51:52;;;;;;;;;;;;;;;;;;5029313;28;4671;-76
2023/07/15 10:54:18;;;;;;;;;;;;;;;;;;5022650;28;1133;-74
2023/07/15 10:56:43;;;;;;;;;;;;;;;;;;5026703;28;5878;-73
2023/07/15 10:59:08;;;;;;;;;;;;;;;;;;5028105;28;5135;-76
2023/07/15 11:01:33;;;;;;;;;;;;;;;;;;5021622;28;5091;-71
2023/07/15 11:04:01;;;;;;;;;;;;;;;;;;5021851;28;5113;-63
2023/07/15 11:06:26;;;;;;;;;;;;;;;;;;5016980;28;3874;-59
2023/07/15 11:08:52;;;;;;;;;;;;;;;;;;5022360;28;4874;-62
2023/07/15 11:11:17;;;;;;;;;;;;;;;;;;5018027;28;4928;-60
2023/07/15 11:13:43;;;;;;;;;;;;;;;;;;5022571;28;5145;-59
2023/07/15 11:16:09;;;;;;;;;;;;;;;;;;5027392;28;5101;-60
2023/07/15 11:18:34;;;;;;;;;;;;;;;;;;5021867;28;1172;-58
2023/07/15 11:21:00;;;;;;;;;;;;;;;;;;5023620;28;4952;-58
2023/07/15 11:23:28;;;;;;;;;;;;;;;;;;5023417;28;4510;-59
2023/07/15 11:25:54;;;;;;;;;;;;;;;;;;5017598;28;4993;-57
2023/07/15 11:28:19;;;;;;;;;;;;;;;;;;5029236;28;4986;-58
2023/07/15 11:30:45;;;;;;;;;;;;;;;;;;5023941;28;5490;-58
2023/07/15 11:33:10;;;;;;;;;;;;;;;;;;5041534;28;3882;-61
2023/07/15 11:35:37;;;;;;;;;;;;;;;;;;5024769;28;4983;-60
2023/07/15 11:38:11;;;;;;;;;;;;;;;;;;5025111;28;5112;-68
2023/07/15 11:40:57;;;;;;;;;;;;;;;;;;5025097;28;4522;-62
2023/07/15 11:43:23;;;;;;;;;;;;;;;;;;5023103;28;5133;-64
2023/07/15 11:45:48;;;;;;;;;;;;;;;;;;5022501;28;5053;-64
2023/07/15 11:48:22;;;;;;;;;;;;;;;;;;5027239;28;2063;-65
2023/07/15 11:50:48;;;;;;;;;;;;;;;;;;5024347;28;4652;-60
2023/07/15 11:53:35;;;;;;;;;;;;;;;;;;5023806;28;4742;-62
2023/07/15 11:56:00;;;;;;;;;;;;;;;;;;5018842;28;5736;-60
2023/07/15 11:58:38;;;;;;;;;;;;;;;;;;5022220;28;4513;-60
2023/07/15 12:01:06;;;;;;;;;;;;;;;;;;5017676;28;5273;-61
2023/07/15 12:03:31;;;;;;;;;;;;;;;;;;5017817;28;5228;-60
2023/07/15 12:05:56;;;;;;;;;;;;;;;;;;5014081;28;4576;-62
2023/07/15 12:08:22;;;;;;;;;;;;;;;;;;5020629;28;4870;-61
2023/07/15 12:10:50;;;;;;;;;;;;;;;;;;5024545;28;6000;-61
2023/07/15 12:13:16;;;;;;;;;;;;;;;;;;5019975;28;4766;-61
2023/07/15 12:15:41;;;;;;;;;;;;;;;;;;5016544;28;5048;-61
2023/07/15 12:18:06;;;;;;;;;;;;;;;;;;5020843;28;3747;-61
2023/07/15 12:20:32;;;;;;;;;;;;;;;;;;5018181;28;4421;-62
2023/07/15 12:22:57;;;;;;;;;;;;;;;;;;5032651;28;4700;-62
2023/07/15 12:25:24;;;;;;;;;;;;;;;;;;5016193;28;5713;-63
2023/07/15 12:27:49;;;;;;;;;;;;;;;;;;5012872;28;5350;-65
2023/07/15 12:30:14;;;;;;;;;;;;;;;;;;5019871;28;4010;-65
2023/07/15 12:32:39;;;;;;;;;;;;;;;;;;5026412;28;5166;-65
2023/07/15 12:35:05;;;;;;;;;;;;;;;;;;5024039;28;4745;-65
2023/07/15 12:37:30;;;;;;;;;;;;;;;;;;5025063;28;5289;-66
2023/07/15 12:39:55;;;;;;;;;;;;;;;;;;5028353;28;5519;-65
2023/07/15 12:42:21;;;;;;;;;;;;;;;;;;5025546;28;3722;-65
2023/07/15 12:44:46;;;;;;;;;;;;;;;;;;5027224;28;4978;-65
2023/07/15 12:47:11;;;;;;;;;;;;;;;;;;5028243;28;4704;-65
2023/07/15 12:49:36;;;;;;;;;;;;;;;;;;5026107;28;4501;-65
2023/07/15 12:52:02;;;;;;;;;;;;;;;;;;5029134;28;5063;-66
2023/07/15 12:54:27;;;;;;;;;;;;;;;;;;5027165;28;3612;-65
2023/07/15 12:56:52;;;;;;;;;;;;;;;;;;5024443;28;5630;-66
2023/07/15 12:59:18;;;;;;;;;;;;;;;;;;5021891;28;5109;-65
2023/07/15 13:01:43;;;;;;;;;;;;;;;;;;5027742;28;5064;-65
2023/07/15 13:04:08;;;;;;;;;;;;;;;;;;5023876;28;5099;-65
2023/07/15 13:06:34;;;;;;;;;;;;;;;;;;5027238;28;3745;-66
2023/07/15 13:08:59;;;;;;;;;;;;;;;;;;5026750;28;4423;-65
2023/07/15 13:11:24;;;;;;;;;;;;;;;;;;5028645;28;5148;-66
2023/07/15 13:13:49;;;;;;;;;;;;;;;;;;5028810;28;4678;-66
2023/07/15 13:16:15;;;;;;;;;;;;;;;;;;5028670;28;4494;-65
2023/07/15 13:18:40;;;;;;;;;;;;;;;;;;5029398;28;4514;-65
2023/07/15 13:21:05;;;;;;;;;;;;;;;;;;5028976;28;1217;-64
2023/07/15 13:23:30;;;;;;;;;;;;;;;;;;5029198;28;5094;-65
2023/07/15 13:25:56;;;;;;;;;;;;;;;;;;5023512;28;5622;-64
2023/07/15 13:28:21;;;;;;;;;;;;;;;;;;5027709;28;5127;-65
2023/07/15 13:30:46;;;;;;;;;;;;;;;;;;5023389;28;5074;-67
2023/07/15 13:33:12;;;;;;;;;;;;;;;;;;5026250;28;1136;-66
2023/07/15 13:35:37;;;;;;;;;;;;;;;;;;5028514;28;5050;-67
2023/07/15 13:38:03;;;;;;;;;;;;;;;;;;5026789;28;4520;-67
2023/07/15 13:40:28;;;;;;;;;;;;;;;;;;5028203;28;4526;-67
2023/07/15 13:42:53;;;;;;;;;;;;;;;;;;5028353;28;4705;-67
2023/07/15 13:45:18;;;;;;;;;;;;;;;;;;5028705;28;1420;-68
2023/07/15 13:47:44;;;;;;;;;;;;;;;;;;5028928;28;4939;-66
2023/07/15 13:50:09;;;;;;;;;;;;;;;;;;5028480;28;4485;-67
2023/07/15 13:52:34;;;;;;;;;;;;;;;;;;5029032;28;4744;-66
2023/07/15 13:55:00;;;;;;;;;;;;;;;;;;5028691;28;5124;-65
2023/07/15 13:57:25;;;;;;;;;;;;;;;;;;5027991;28;1309;-66
2023/07/15 13:59:50;;;;;;;;;;;;;;;;;;5028199;28;5062;-67
2023/07/15 14:02:15;;;;;;;;;;;;;;;;;;5027037;28;4589;-66
2023/07/15 14:04:41;;;;;;;;;;;;;;;;;;5028423;28;5177;-66
2023/07/15 14:07:06;;;;;;;;;;;;;;;;;;5028528;28;4580;-66
2023/07/15 14:09:31;;;;;;;;;;;;;;;;;;5029298;28;1101;-67
2023/07/15 14:11:57;;;;;;;;;;;;;;;;;;5026983;28;4989;-65
2023/07/15 14:14:22;;;;;;;;;;;;;;;;;;5028725;28;5029;-65
2023/07/15 14:16:47;;;;;;;;;;;;;;;;;;5028383;28;5106;-67
2023/07/15 14:19:12;;;;;;;;;;;;;;;;;;5028747;28;4631;-66
2023/07/15 14:21:38;;;;;;;;;;;;;;;;;;5026387;28;5027;-65
2023/07/15 14:24:04;;;;;;;;;;;;;;;;;;5029235;28;1092;-67
2023/07/15 14:26:32;;;;;;;;;;;;;;;;;;5027284;28;5500;-65
2023/07/15 14:28:57;;;;;;;;;;;;;;;;;;5028387;28;4701;-66
2023/07/15 14:31:23;;;;;;;;;;;;;;;;;;5028650;28;4568;-65
2023/07/15 14:33:53;;;;;;;;;;;;;;;;;;5027278;28;4717;-66
2023/07/15 14:36:18;;;;;;;;;;;;;;;;;;5028416;28;1624;-66
2023/07/15 14:38:43;;;;;;;;;;;;;;;;;;5028402;28;4425;-66
2023/07/15 14:41:09;;;;;;;;;;;;;;;;;;5027142;28;5330;-66
2023/07/15 14:43:34;;;;;;;;;;;;;;;;;;5026408;28;5123;-65
2023/07/15 14:46:00;;;;;;;;;;;;;;;;;;5020803;28;5132;-66
2023/07/15 14:48:26;;;;;;;;;;;;;;;;;;5025834;28;1151;-67
2023/07/15 14:50:51;;;;;;;;;;;;;;;;;;5024595;28;5205;-66
2023/07/15 14:53:16;;;;;;;;;;;;;;;;;;5024373;28;5021;-65
2023/07/15 14:55:41;;;;;;;;;;;;;;;;;;5022326;28;5369;-66
2023/07/15 14:58:07;;;;;;;;;;;;;;;;;;5028015;28;5127;-66
2023/07/15 15:00:33;;;;;;;;;;;;;;;;;;5026157;28;1231;-66
2023/07/15 15:02:59;;;;;;;;;;;;;;;;;;5025438;28;5063;-66
2023/07/15 15:05:24;;;;;;;;;;;;;;;;;;5027179;28;4518;-68
2023/07/15 15:07:49;;;;;;;;;;;;;;;;;;5027165;28;5137;-66
2023/07/15 15:10:14;;;;;;;;;;;;;;;;;;5027337;28;4922;-66
2023/07/15 15:12:39;;;;;;;;;;;;;;;;;;5027516;28;4477;-66
2023/07/15 15:15:05;;;;;;;;;;;;;;;;;;5026779;28;1380;-66
2023/07/15 15:17:32;;;;;;;;;;;;;;;;;;5027040;28;5026;-66
2023/07/15 15:19:57;;;;;;;;;;;;;;;;;;5026840;28;4970;-67
2023/07/15 15:22:22;;;;;;;;;;;;;;;;;;5027004;28;5183;-66
2023/07/15 15:24:48;;;;;;;;;;;;;;;;;;5026946;28;5356;-66
2023/07/15 15:27:13;;;;;;;;;;;;;;;;;;5027608;28;1276;-66
2023/07/15 15:29:38;;;;;;;;;;;;;;;;;;5026547;28;5003;-67
2023/07/15 15:32:03;;;;;;;;;;;;;;;;;;5027335;28;5074;-67
2023/07/15 15:34:29;;;;;;;;;;;;;;;;;;5026744;28;4588;-66
2023/07/15 15:36:54;;;;;;;;;;;;;;;;;;5026508;28;4458;-65
2023/07/15 15:39:19;;;;;;;;;;;;;;;;;;5027053;28;1246;-66
2023/07/15 15:41:44;;;;;;;;;;;;;;;;;;5026720;28;5378;-64
2023/07/15 15:44:10;;;;;;;;;;;;;;;;;;5026742;28;5006;-65
2023/07/15 15:46:35;;;;;;;;;;;;;;;;;;5020982;28;4500;-65
2023/07/15 15:49:01;;;;;;;;;;;;;;;;;;5026490;28;5158;-64
2023/07/15 15:51:26;;;;;;;;;;;;;;;;;;5027089;28;1132;-64
2023/07/15 15:54:02;;;;;;;;;;;;;;;;;;5018759;28;4988;-65
2023/07/15 15:56:27;;;;;;;;;;;;;;;;;;5024989;28;4810;-65
2023/07/15 15:58:53;;;;;;;;;;;;;;;;;;5026595;28;4587;-66
2023/07/15 16:01:19;;;;;;;;;;;;;;;;;;5024650;28;4744;-64
2023/07/15 16:03:44;;;;;;;;;;;;;;;;;;5026168;28;5083;-64
2023/07/15 16:06:09;;;;;;;;;;;;;;;;;;5026482;28;1147;-66
2023/07/15 16:08:35;;;;;;;;;;;;;;;;;;5026554;28;5034;-63
2023/07/15 16:11:00;;;;;;;;;;;;;;;;;;5025755;28;4542;-63
2023/07/15 16:13:26;;;;;;;;;;;;;;;;;;5025960;28;5064;-64
2023/07/15 16:15:51;;;;;;;;;;;;;;;;;;5026016;28;5045;-64
2023/07/15 16:18:17;;;;;;;;;;;;;;;;;;5026476;28;1069;-64
2023/07/15 16:20:42;;;;;;;;;;;;;;;;;;5026166;28;5050;-66
2023/07/15 16:23:08;;;;;;;;;;;;;;;;;;5026030;28;4577;-66
2023/07/15 16:25:33;;;;;;;;;;;;;;;;;;5026339;28;5099;-66
2023/07/15 16:27:58;;;;;;;;;;;;;;;;;;5025952;28;5165;-63
2023/07/15 16:30:24;;;;;;;;;;;;;;;;;;5026880;28;2496;-64
2023/07/15 16:32:49;;;;;;;;;;;;;;;;;;5025995;28;5023;-66
2023/07/15 16:35:14;;;;;;;;;;;;;;;;;;5026458;28;5107;-65
2023/07/15 16:37:39;;;;;;;;;;;;;;;;;;5025764;28;5550;-65
2023/07/15 16:40:05;;;;;;;;;;;;;;;;;;5026258;28;6133;-63
2023/07/15 16:42:30;;;;;;;;;;;;;;;;;;5024803;28;1918;-64
2023/07/15 16:44:56;;;;;;;;;;;;;;;;;;5026211;28;4429;-68
2023/07/15 16:47:21;;;;;;;;;;;;;;;;;;5026248;28;5142;-64
2023/07/15 16:49:46;;;;;;;;;;;;;;;;;;5023154;28;5068;-63
2023/07/15 16:52:12;;;;;;;;;;;;;;;;;;5026001;28;4477;-63
2023/07/15 16:54:37;;;;;;;;;;;;;;;;;;5024491;28;5687;-66